Reno, NV (89521)

4:33 PM PDT on May 30, 2015 (GMT -0700)
Hidden Lake | | Change Station
CLOSE
Current Station
Personal Weather Station
Location: Reno, NV
Elevation: 4652 ft
Nearby Weather Stations

Elev 4652 ft 39.37 °N, 119.75 °W | Updated 1 minute ago

Partly Cloudy
Partly Cloudy
87.1 °F
Feels Like 84 °F
N
15.0
Wind Variable Wind from SW

Today
High -- | Low -- °F
--% Chance of Precip.
Yesterday
High -- | Low -- °F
Precip. -- in
5:35 AM 8:18 PM
Waxing Gibbous, 92% visible
Pressure 29.83 in
Visibility 10.0 miles
Clouds Few 10000 ft
Few 14000 ft
Scattered Clouds 19000 ft
Mostly Cloudy 25000 ft
Heat Index 84 °F
Dew Point 32 °F
Humidity 14%
Rainfall 0.00 in
Snow Depth Not available.
UV 4 out of 12
Pollen 7.20 out of 12
Air Quality Not available.
Flu Activity Sporadic
METAR KRNO 302255Z 27009G20KT 10SM FEW100 FEW140 SCT190 BKN250 32/M04 A2999 RMK AO2 WSHFT 2235 SLP102 ACSL DSNT E T03171039

More Conditions Fewer Conditions

Pressure 29.83 in
Visibility 10.0 miles
Clouds Few 10000 ft
Few 14000 ft
Scattered Clouds 19000 ft
Mostly Cloudy 25000 ft
Heat Index 84 °F
Dew Point 32 °F
Humidity 14%
Rainfall 0.00 in
Snow Depth Not available.
UV 4 out of 12
Pollen 7.20 out of 12
Air Quality Not available.
Flu Activity Sporadic
METAR KRNO 302255Z 27009G20KT 10SM FEW100 FEW140 SCT190 BKN250 32/M04 A2999 RMK AO2 WSHFT 2235 SLP102 ACSL DSNT E T03171039

More Conditions Fewer Conditions

10-Day Weather Forecast

Almanac

Astronomy

May. 30, 2015 Rise Set
Actual Time
Civil Twilight
Nautical Twilight
Astronomical Twilight
Moon
Length of Visible Light
Length of Day
Tomorrow will be .
, % of the Moon is Illuminated

Today's Extremes

State Highs State Lows

Community

WunderPhotos

Upload Photos

1,825,556 photos uploaded!

WunderBlogs® & News

Nearby

Air Quality

  Air Quality AQ Index Pollutant
Not available.

Snow Depth

Station Depth Elevation

Earthquake Activity

City Distance Mag. Time & Date
Minimum magnitude displayed is 2.5.

Coastal Water Temperatures

Place Temperature

Stations

Nearby Weather Stations

Station Location Temp. Windchill Dew Point Humidity Wind Precip. Elev Updated Type